Time;durP1;ratioP1;P1;durP2;ratioP2;P2;SDS_P1;SDS_P2;PMS_P1;PMS_P2;Temp;Humidity;BMP_temperature;BMP_pressure;BME280_temperature;BME280_humidity;BME280_pressure;Samples;Min_cycle;Max_cycle;Signal;HPM_P1;HPM_P2
2022/07/08 00:01:40;;;;;;;1.50;1.02;;;;;;;18.27;58.09;96465.84;5074546;28;20047;-69
2022/07/08 00:04:05;;;;;;;1.13;1.13;;;;;;;18.27;58.12;96464.03;5087496;28;20115;-69
2022/07/08 00:06:31;;;;;;;1.63;1.20;;;;;;;18.26;58.03;96457.03;5081361;28;20507;-68
2022/07/08 00:08:56;;;;;;;1.02;1.00;;;;;;;18.25;58.16;96459.88;5084475;28;20498;-69
2022/07/08 00:11:22;;;;;;;2.05;1.20;;;;;;;18.19;58.17;96461.38;5081435;28;20024;-68
2022/07/08 00:13:48;;;;;;;1.20;1.13;;;;;;;18.18;58.23;96465.03;5091218;28;20045;-69
2022/07/08 00:16:14;;;;;;;2.55;1.20;;;;;;;18.20;58.79;96457.72;5085479;28;20020;-68
2022/07/08 00:18:39;;;;;;;1.58;0.98;;;;;;;18.12;59.00;96458.56;5080209;28;20108;-69
2022/07/08 00:21:04;;;;;;;3.25;1.10;;;;;;;18.05;59.18;96460.25;5085276;28;20525;-68
2022/07/08 00:23:30;;;;;;;1.88;1.35;;;;;;;18.09;58.69;96463.41;5081296;28;20121;-69
2022/07/08 00:25:55;;;;;;;2.22;1.23;;;;;;;18.10;58.19;96462.41;5088016;28;20074;-69
2022/07/08 00:28:21;;;;;;;1.42;1.23;;;;;;;18.02;59.35;96466.75;5086887;28;20048;-69
2022/07/08 00:30:46;;;;;;;1.05;1.05;;;;;;;17.95;59.88;96471.06;5077799;28;20028;-68
2022/07/08 00:33:12;;;;;;;1.40;1.30;;;;;;;17.86;60.45;96464.91;5081453;28;20019;-68
2022/07/08 00:35:37;;;;;;;1.35;1.27;;;;;;;17.81;60.43;96463.78;5079832;28;20055;-68
2022/07/08 00:38:02;;;;;;;1.30;1.20;;;;;;;17.77;60.12;96476.59;5075379;28;20017;-68
2022/07/08 00:40:28;;;;;;;1.58;1.20;;;;;;;17.75;60.86;96466.09;5082171;28;20111;-69
2022/07/08 00:42:53;;;;;;;1.10;1.10;;;;;;;17.78;60.60;96472.06;5093482;28;20536;-69
2022/07/08 00:45:19;;;;;;;2.47;1.20;;;;;;;17.79;60.41;96479.91;5083854;28;20479;-68
2022/07/08 00:47:45;;;;;;;1.45;1.35;;;;;;;17.69;61.24;96479.28;5078063;28;20053;-69
2022/07/08 00:50:11;;;;;;;1.85;1.23;;;;;;;17.58;61.40;96473.25;5083692;28;20039;-68
2022/07/08 00:52:41;;;;;;;1.33;1.20;;;;;;;17.65;60.65;96486.75;5099871;28;20030;-68
2022/07/08 00:55:08;;;;;;;1.80;1.70;;;;;;;17.66;60.98;96483.09;5075929;28;20021;-68
2022/07/08 00:57:38;;;;;;;1.10;1.10;;;;;;;17.61;61.47;96488.09;5090830;28;20510;-68
2022/07/08 01:00:04;;;;;;;1.15;1.15;;;;;;;17.56;61.90;96482.41;5077313;28;20017;-68
2022/07/08 01:02:30;;;;;;;3.50;1.10;;;;;;;17.46;61.79;96487.88;5078701;28;20543;-68
2022/07/08 01:04:55;;;;;;;1.15;1.15;;;;;;;17.44;62.30;96490.75;5071355;28;20111;-68
2022/07/08 01:07:22;;;;;;;1.20;1.20;;;;;;;17.43;62.17;96489.06;5077310;28;20027;-69
2022/07/08 01:09:48;;;;;;;2.28;1.25;;;;;;;17.38;62.71;96490.56;5080348;28;20063;-68
2022/07/08 01:12:13;;;;;;;3.50;1.20;;;;;;;17.36;62.77;96500.53;5059583;28;20059;-68
2022/07/08 01:14:39;;;;;;;1.48;1.20;;;;;;;17.35;63.20;96491.72;5083857;28;20032;-68
2022/07/08 01:17:05;;;;;;;1.15;1.15;;;;;;;17.34;63.05;96482.06;5075668;28;20438;-69
2022/07/08 01:19:32;;;;;;;1.10;1.10;;;;;;;17.49;62.13;96486.75;5082480;28;20024;-69
2022/07/08 01:21:57;;;;;;;1.15;1.15;;;;;;;17.47;62.34;96481.59;5079639;28;20042;-68
2022/07/08 01:24:23;;;;;;;1.50;1.40;;;;;;;17.45;62.54;96489.75;5079458;28;20024;-69
2022/07/08 01:26:49;;;;;;;1.75;1.25;;;;;;;17.43;62.31;96483.75;5088021;28;20016;-68
2022/07/08 01:29:14;;;;;;;1.40;1.30;;;;;;;17.50;62.88;96491.06;5078948;28;20020;-68
2022/07/08 01:31:40;;;;;;;2.10;1.35;;;;;;;17.46;63.10;96487.88;5086860;28;20028;-69
2022/07/08 01:34:06;;;;;;;1.88;1.42;;;;;;;17.40;63.12;96489.41;5077635;28;20418;-69
2022/07/08 01:36:31;;;;;;;3.13;1.40;;;;;;;17.33;64.29;96489.22;5075906;28;20027;-69
2022/07/08 01:38:56;;;;;;;1.70;1.60;;;;;;;17.31;64.25;96490.38;5078385;28;20055;-68
2022/07/08 01:41:22;;;;;;;1.10;1.10;;;;;;;17.23;64.52;96493.03;5084513;28;20063;-68
2022/07/08 01:43:47;;;;;;;1.23;1.20;;;;;;;17.16;64.64;96493.72;5076980;28;20048;-68
2022/07/08 01:46:13;;;;;;;4.50;1.42;;;;;;;17.17;65.04;96494.53;5074295;28;20024;-68
2022/07/08 01:48:38;;;;;;;3.20;1.33;;;;;;;17.09;65.00;96489.19;5081222;28;20039;-68
2022/07/08 01:51:03;;;;;;;1.27;1.17;;;;;;;16.95;65.81;96496.78;5075615;28;20036;-68
2022/07/08 01:53:29;;;;;;;1.30;1.25;;;;;;;16.90;65.78;96499.09;5081511;28;20026;-69
2022/07/08 01:55:54;;;;;;;1.52;1.40;;;;;;;16.87;65.84;96505.56;5073942;28;20028;-68
2022/07/08 01:58:20;;;;;;;1.40;1.40;;;;;;;16.82;65.97;96501.75;5071526;28;20442;-68
2022/07/08 02:00:45;;;;;;;3.22;1.52;;;;;;;16.82;65.70;96494.59;5083810;28;20033;-67
2022/07/08 02:03:10;;;;;;;1.52;1.42;;;;;;;16.74;66.60;96499.88;5075431;28;20805;-68
2022/07/08 02:05:37;;;;;;;1.38;1.30;;;;;;;16.67;66.84;96504.16;5079140;28;20115;-68
2022/07/08 02:08:03;;;;;;;1.45;1.27;;;;;;;16.61;66.94;96506.47;5062149;28;20024;-69
2022/07/08 02:12:18;;;;;;;1.90;1.30;;;;;;;16.59;66.84;96503.16;5061421;28;20421;-69
2022/07/08 02:13:16;;;;;;;1.65;1.60;;;;;;;16.53;67.19;96509.09;5077121;28;20029;-69
2022/07/08 02:15:41;;;;;;;1.45;1.45;;;;;;;16.50;67.36;96512.09;5087120;28;20764;-69
2022/07/08 02:18:07;;;;;;;2.95;1.17;;;;;;;16.43;67.22;96508.38;5075076;28;20039;-69
2022/07/08 02:20:32;;;;;;;2.67;1.58;;;;;;;16.39;67.68;96507.03;5080949;28;20028;-69
2022/07/08 02:22:57;;;;;;;1.58;1.48;;;;;;;16.40;67.70;96508.69;5083314;28;20024;-69
2022/07/08 02:25:23;;;;;;;1.60;1.50;;;;;;;16.36;67.57;96513.50;5082782;28;20490;-69
2022/07/08 02:27:48;;;;;;;1.25;1.25;;;;;;;16.30;67.40;96512.31;5083165;28;20020;-69
2022/07/08 02:30:13;;;;;;;1.40;1.30;;;;;;;16.27;67.92;96511.78;5082882;28;20059;-69
2022/07/08 02:32:39;;;;;;;1.60;1.50;;;;;;;16.27;68.33;96514.44;5079606;28;20050;-69
2022/07/08 02:35:05;;;;;;;3.00;1.27;;;;;;;16.26;68.59;96513.63;5076091;28;20035;-69
2022/07/08 02:37:30;;;;;;;1.70;1.60;;;;;;;16.23;68.58;96515.75;5083472;28;20028;-69
2022/07/08 02:39:55;;;;;;;1.58;1.30;;;;;;;16.13;69.16;96515.88;5085096;28;20028;-69
2022/07/08 02:42:21;;;;;;;1.15;1.10;;;;;;;16.09;69.75;96518.00;5081085;28;20114;-69
2022/07/08 02:44:46;;;;;;;1.27;1.25;;;;;;;16.01;69.08;96518.75;5084102;28;20103;-69
2022/07/08 02:47:11;;;;;;;1.52;1.40;;;;;;;16.04;69.10;96521.13;5079940;28;20150;-69
2022/07/08 02:49:37;;;;;;;1.35;1.25;;;;;;;16.03;68.89;96530.09;5083643;28;20028;-69
2022/07/08 02:52:03;;;;;;;1.40;1.30;;;;;;;16.02;69.03;96527.56;5082075;28;20020;-69
2022/07/08 02:54:28;;;;;;;1.23;1.23;;;;;;;15.97;69.92;96533.34;5084427;28;20056;-69
2022/07/08 02:56:53;;;;;;;1.60;1.50;;;;;;;15.93;69.80;96536.50;5077047;28;20047;-69
2022/07/08 02:59:19;;;;;;;1.17;1.17;;;;;;;15.92;69.92;96532.16;5081120;28;20499;-68
2022/07/08 03:01:44;;;;;;;1.25;1.25;;;;;;;15.92;70.06;96537.47;5080858;28;20738;-69
2022/07/08 03:04:09;;;;;;;1.23;1.20;;;;;;;15.98;69.64;96542.16;5084440;28;20170;-69
2022/07/08 03:06:35;;;;;;;2.35;1.30;;;;;;;16.02;69.79;96541.69;5080588;28;20036;-69
2022/07/08 03:09:00;;;;;;;1.50;1.40;;;;;;;15.99;69.39;96542.00;5086105;28;20054;-68
2022/07/08 03:11:27;;;;;;;2.58;1.27;;;;;;;15.95;69.71;96545.13;5077441;28;20494;-69
2022/07/08 03:13:52;;;;;;;1.40;1.40;;;;;;;15.87;70.66;96546.69;5085966;28;20016;-69
2022/07/08 03:16:17;;;;;;;1.95;1.63;;;;;;;15.81;71.65;96557.13;5081188;28;20035;-68
2022/07/08 03:18:43;;;;;;;3.60;1.38;;;;;;;15.78;71.87;96562.69;5088219;28;20032;-69
2022/07/08 03:21:08;;;;;;;1.40;1.40;;;;;;;15.73;72.15;96557.88;5089044;28;20031;-69
2022/07/08 03:23:34;;;;;;;2.45;2.05;;;;;;;15.66;72.18;96554.16;5093010;28;20107;-69
2022/07/08 03:26:00;;;;;;;2.65;2.38;;;;;;;15.74;71.89;96551.56;5085981;28;20459;-69
2022/07/08 03:28:26;;;;;;;4.05;2.38;;;;;;;15.81;71.43;96552.63;5088842;28;20028;-69
2022/07/08 03:30:51;;;;;;;1.88;1.77;;;;;;;15.85;71.90;96553.16;5082360;28;20045;-69
2022/07/08 03:33:17;;;;;;;1.98;1.67;;;;;;;15.88;71.58;96560.81;5085554;28;20487;-69
2022/07/08 03:35:42;;;;;;;1.60;1.50;;;;;;;15.88;71.47;96555.50;5091855;28;20024;-69
2022/07/08 03:38:07;;;;;;;1.80;1.70;;;;;;;15.89;71.84;96560.66;5084501;28;20372;-68
2022/07/08 03:43:16;;;;;;;5.80;1.67;;;;;;;15.89;71.85;96570.47;5082065;28;20073;-68
2022/07/08 03:45:42;;;;;;;1.88;1.52;;;;;;;15.92;72.57;96564.03;5087056;28;20020;-68
2022/07/08 03:48:07;;;;;;;1.38;1.30;;;;;;;15.94;72.75;96570.03;5085763;28;20116;-68
2022/07/08 03:50:32;;;;;;;1.80;1.70;;;;;;;15.99;72.54;96563.22;5079905;28;20028;-69
2022/07/08 03:52:58;;;;;;;2.95;1.48;;;;;;;16.03;72.13;96566.44;5082143;28;20817;-68
2022/07/08 03:55:25;;;;;;;1.20;1.15;;;;;;;16.06;72.35;96565.28;5083307;28;20463;-69
2022/07/08 03:57:51;;;;;;;1.40;1.40;;;;;;;16.17;72.50;96573.84;5082289;28;20096;-69
2022/07/08 04:00:16;;;;;;;1.38;1.27;;;;;;;16.26;71.70;96576.53;5079403;28;20840;-69
2022/07/08 04:02:41;;;;;;;4.03;1.40;;;;;;;16.32;71.89;96573.25;5081853;28;20020;-69
2022/07/08 04:05:07;;;;;;;1.80;1.40;;;;;;;16.32;71.71;96578.56;5082042;28;20024;-69
2022/07/08 04:07:33;;;;;;;1.92;1.40;;;;;;;16.38;71.18;96579.78;5085523;28;20028;-68
2022/07/08 04:09:59;;;;;;;1.58;1.45;;;;;;;16.38;71.13;96579.78;5090498;28;20026;-69
2022/07/08 04:12:24;;;;;;;1.67;1.58;;;;;;;16.40;71.38;96583.09;5084014;28;20025;-69
2022/07/08 04:14:49;;;;;;;1.52;1.42;;;;;;;16.38;71.72;96585.09;5076865;28;20028;-69
2022/07/08 04:17:15;;;;;;;1.67;1.58;;;;;;;16.42;71.02;96587.28;5080662;28;20028;-69
2022/07/08 04:19:40;;;;;;;1.70;1.60;;;;;;;16.46;71.22;96595.75;5080174;28;20062;-69
2022/07/08 04:22:05;;;;;;;1.48;1.40;;;;;;;16.46;71.39;96601.06;5081119;28;20107;-69
2022/07/08 04:24:31;;;;;;;1.60;1.50;;;;;;;16.47;70.93;96592.13;5081002;28;20020;-69
2022/07/08 04:26:56;;;;;;;1.55;1.45;;;;;;;16.49;71.17;96592.81;5079624;28;20364;-69
2022/07/08 04:29:22;;;;;;;1.50;1.40;;;;;;;16.52;70.31;96597.81;5080318;28;20289;-69
2022/07/08 04:31:47;;;;;;;1.55;1.40;;;;;;;16.49;71.18;96598.13;5081576;28;20073;-69
2022/07/08 04:34:12;;;;;;;1.42;1.33;;;;;;;16.48;71.55;96604.44;5079794;28;20040;-69
2022/07/08 04:36:38;;;;;;;2.25;1.50;;;;;;;16.47;71.91;96608.09;5087509;28;20031;-70
2022/07/08 04:39:03;;;;;;;1.92;1.45;;;;;;;16.43;71.80;96614.69;5081208;28;20099;-69
2022/07/08 04:41:29;;;;;;;1.20;1.20;;;;;;;16.44;72.01;96600.41;5081003;28;20115;-69
2022/07/08 04:43:54;;;;;;;1.50;1.40;;;;;;;16.44;72.13;96606.56;5080044;28;20392;-69
2022/07/08 04:46:19;;;;;;;1.50;1.40;;;;;;;16.55;71.33;96613.44;5083317;28;20024;-69
2022/07/08 04:48:44;;;;;;;1.30;1.30;;;;;;;16.69;70.67;96609.34;5084299;28;20051;-68
2022/07/08 04:51:10;;;;;;;1.30;1.20;;;;;;;16.69;70.71;96616.47;5081495;28;20028;-69
2022/07/08 04:53:35;;;;;;;1.35;1.35;;;;;;;16.67;70.77;96616.66;5083796;28;20036;-69
2022/07/08 04:56:01;;;;;;;3.35;1.40;;;;;;;16.64;70.66;96616.97;5078104;28;20111;-67
2022/07/08 04:58:26;;;;;;;1.50;1.40;;;;;;;16.71;70.23;96615.34;5076074;28;20026;-69
2022/07/08 05:00:51;;;;;;;1.58;1.50;;;;;;;16.80;70.20;96620.69;5091505;28;20530;-69
2022/07/08 05:03:17;;;;;;;1.60;1.50;;;;;;;16.81;70.03;96617.91;5084814;28;20066;-69
2022/07/08 05:05:42;;;;;;;1.98;1.50;;;;;;;16.85;69.25;96613.09;5091720;28;20050;-69
2022/07/08 05:08:08;;;;;;;1.30;1.30;;;;;;;16.85;69.34;96621.09;5083221;28;20024;-69
2022/07/08 05:10:33;;;;;;;1.35;1.25;;;;;;;16.89;69.36;96614.44;5077933;28;20063;-69
2022/07/08 05:12:59;;;;;;;1.30;1.20;;;;;;;16.99;69.11;96609.84;5081717;28;20031;-68
2022/07/08 05:15:25;;;;;;;1.38;1.27;;;;;;;17.19;68.57;96609.59;5082280;28;20402;-69
2022/07/08 05:17:53;;;;;;;1.58;1.48;;;;;;;17.43;68.02;96603.53;5073199;28;20027;-69
2022/07/08 05:20:19;;;;;;;1.58;1.45;;;;;;;17.54;67.61;96602.38;5085209;28;20074;-69
2022/07/08 05:22:45;;;;;;;1.38;1.30;;;;;;;17.63;66.81;96600.56;5084349;28;20043;-69
2022/07/08 05:25:12;;;;;;;1.38;1.30;;;;;;;17.66;66.77;96597.56;5072897;28;20021;-69
2022/07/08 05:27:37;;;;;;;1.50;1.40;;;;;;;17.64;67.70;96591.59;5077144;28;20047;-69
2022/07/08 05:30:05;;;;;;;2.80;1.40;;;;;;;17.65;67.13;96603.06;5082034;28;20028;-69
2022/07/08 05:32:31;;;;;;;7.88;1.75;;;;;;;17.73;67.08;96597.75;5080105;28;20033;-69
2022/07/08 05:34:57;;;;;;;1.73;1.48;;;;;;;17.80;66.89;96601.41;5078395;28;20036;-69
2022/07/08 05:37:22;;;;;;;1.45;1.40;;;;;;;17.74;67.30;96602.91;5075410;28;20036;-69
2022/07/08 05:39:47;;;;;;;1.60;1.50;;;;;;;17.77;67.37;96588.44;5081478;28;20535;-69
2022/07/08 05:42:13;;;;;;;1.23;1.20;;;;;;;17.81;67.43;96594.28;5076686;28;20032;-69
2022/07/08 05:44:38;;;;;;;3.75;1.40;;;;;;;17.82;67.05;96591.44;5080341;28;20052;-69
2022/07/08 05:47:05;;;;;;;1.52;1.25;;;;;;;17.87;66.75;96577.63;5077246;28;20025;-69
2022/07/08 05:49:31;;;;;;;1.60;1.40;;;;;;;17.87;66.75;96581.09;5083740;28;20052;-69
2022/07/08 05:51:57;;;;;;;4.25;1.30;;;;;;;17.94;66.73;96591.94;5080627;28;20071;-70
2022/07/08 05:54:22;;;;;;;1.40;1.30;;;;;;;17.96;66.82;96594.44;5079998;28;20039;-69
2022/07/08 05:56:48;;;;;;;1.40;1.38;;;;;;;17.98;66.71;96595.09;5087742;28;20040;-69
2022/07/08 05:59:13;;;;;;;2.95;1.17;;;;;;;18.00;66.71;96593.91;5082452;28;20028;-69
2022/07/08 06:01:39;;;;;;;1.45;1.30;;;;;;;18.09;66.81;96604.63;5081637;28;20037;-69
2022/07/08 06:04:04;;;;;;;1.35;1.33;;;;;;;18.20;66.03;96600.78;5099225;28;20027;-69
2022/07/08 06:06:30;;;;;;;1.50;1.40;;;;;;;18.33;65.35;96601.94;5088460;28;20674;-70
2022/07/08 06:08:55;;;;;;;1.48;1.48;;;;;;;18.32;65.09;96605.59;5086367;28;20032;-69
2022/07/08 06:11:20;;;;;;;1.75;1.33;;;;;;;18.13;65.91;96603.28;5078644;28;20040;-69
2022/07/08 06:13:46;;;;;;;1.10;1.10;;;;;;;18.04;66.48;96610.44;5081745;28;20036;-69
2022/07/08 06:16:11;;;;;;;1.40;1.25;;;;;;;18.03;65.70;96603.44;5097604;28;20166;-70
2022/07/08 06:18:37;;;;;;;2.67;1.50;;;;;;;18.12;66.28;96614.94;5094668;28;20471;-69
2022/07/08 06:21:02;;;;;;;1.42;1.27;;;;;;;18.21;65.34;96603.28;5095668;28;20399;-69
2022/07/08 06:23:28;;;;;;;1.92;1.35;;;;;;;18.30;65.50;96599.63;5083916;28;20036;-70
2022/07/08 06:25:53;;;;;;;1.17;1.17;;;;;;;18.50;65.13;96601.91;5086126;28;20031;-70
2022/07/08 06:28:19;;;;;;;1.38;1.27;;;;;;;18.66;64.50;96611.72;5080962;28;20141;-70
2022/07/08 06:30:44;;;;;;;1.40;1.30;;;;;;;18.89;63.56;96610.97;5085069;28;20039;-70
2022/07/08 06:33:10;;;;;;;2.00;1.30;;;;;;;19.12;62.67;96605.75;5086001;28;20024;-69
2022/07/08 06:35:35;;;;;;;2.33;1.73;;;;;;;19.25;61.83;96602.53;5085077;28;20023;-69
2022/07/08 06:38:01;;;;;;;1.30;1.20;;;;;;;19.50;61.79;96594.38;5095824;28;20105;-71
2022/07/08 06:40:27;;;;;;;2.15;1.40;;;;;;;19.75;60.56;96591.56;5109961;28;20051;-70
2022/07/08 06:42:53;;;;;;;1.60;1.40;;;;;;;20.07;59.05;96599.53;5100364;28;20513;-72
2022/07/08 06:45:18;;;;;;;1.30;1.20;;;;;;;20.30;58.07;96591.44;5099287;28;20024;-72
2022/07/08 06:47:43;;;;;;;3.95;1.50;;;;;;;20.61;57.25;96588.63;5089218;28;20100;-71
2022/07/08 06:50:09;;;;;;;1.60;1.15;;;;;;;20.96;55.42;96589.97;5088872;28;20027;-70
2022/07/08 06:52:35;;;;;;;1.20;1.20;;;;;;;21.22;54.98;96586.81;5077297;28;20043;-70
2022/07/08 06:55:02;;;;;;;3.35;1.10;;;;;;;21.63;53.39;96574.69;5082348;28;20024;-71
2022/07/08 06:57:27;;;;;;;1.40;1.30;;;;;;;21.72;52.90;96586.94;5084394;28;20491;-72
2022/07/08 06:59:52;;;;;;;1.15;1.15;;;;;;;21.87;52.51;96578.84;5101374;28;20022;-73
2022/07/08 07:02:18;;;;;;;1.27;1.00;;;;;;;22.26;51.56;96583.91;5103012;28;20094;-71
2022/07/08 07:04:43;;;;;;;1.50;1.40;;;;;;;;;;5097557;28;20063;-71
2022/07/08 07:07:09;;;;;;;1.50;1.40;;;;;;;22.53;50.51;96573.41;5083633;28;20016;-71
2022/07/08 07:09:35;;;;;;;2.90;1.08;;;;;;;22.74;50.14;96580.56;5078166;28;20490;-71
2022/07/08 07:12:01;;;;;;;1.92;1.30;;;;;;;22.90;49.79;96571.38;5080984;28;20028;-71
2022/07/08 07:14:27;;;;;;;3.95;1.40;;;;;;;22.92;49.70;96571.19;5087082;28;20036;-71
2022/07/08 07:16:52;;;;;;;1.30;1.20;;;;;;;22.67;49.86;96572.47;5085330;28;20023;-71
2022/07/08 07:19:17;;;;;;;2.90;1.20;;;;;;;22.97;49.12;96571.41;5079113;28;20016;-71
2022/07/08 07:21:43;;;;;;;5.28;1.20;;;;;;;23.14;49.35;96572.72;5082183;28;20507;-71
2022/07/08 07:24:08;;;;;;;2.28;0.93;;;;;;;23.39;48.05;96579.44;5087627;28;20020;-72
2022/07/08 07:26:34;;;;;;;1.17;1.17;;;;;;;23.62;48.23;96581.78;5084175;28;20020;-72
2022/07/08 07:28:59;;;;;;;3.08;1.15;;;;;;;23.54;47.18;96573.91;5083008;28;20024;-72
2022/07/08 07:31:24;;;;;;;2.15;1.40;;;;;;;23.59;47.16;96568.75;5073819;28;20028;-72
2022/07/08 07:33:50;;;;;;;3.60;1.17;;;;;;;23.83;46.40;96564.66;5082287;28;20073;-72
2022/07/08 07:36:15;;;;;;;1.50;1.40;;;;;;;23.91;45.97;96573.56;5082217;28;20035;-74
2022/07/08 07:38:40;;;;;;;3.90;1.15;;;;;;;24.00;45.24;96575.88;5075713;28;20387;-72
2022/07/08 07:41:06;;;;;;;2.88;1.05;;;;;;;24.06;45.51;96582.28;5065827;28;20027;-72
2022/07/08 07:43:31;;;;;;;2.17;1.98;;;;;;;24.09;46.00;96578.38;5084481;28;20499;-73
2022/07/08 07:45:56;;;;;;;1.92;1.30;;;;;;;24.24;45.52;96591.59;5076707;28;20024;-73
2022/07/08 07:48:22;;;;;;;2.60;1.27;;;;;;;24.35;44.66;96585.63;5079928;28;20466;-72
2022/07/08 07:50:47;;;;;;;1.10;1.10;;;;;;;24.58;44.14;96581.66;5085456;28;20029;-72
2022/07/08 07:53:13;;;;;;;1.25;1.15;;;;;;;24.55;44.65;96582.91;5075185;28;20500;-73
2022/07/08 07:55:38;;;;;;;1.13;1.10;;;;;;;24.93;42.99;96585.97;5087744;28;20086;-72
2022/07/08 07:58:03;;;;;;;2.35;1.05;;;;;;;25.16;42.81;96586.31;5078791;28;20563;-72
2022/07/08 08:00:29;;;;;;;3.72;1.38;;;;;;;24.92;42.91;96585.13;5079761;28;20031;-72
2022/07/08 08:02:54;;;;;;;1.35;1.02;;;;;;;25.16;43.27;96586.31;5081835;28;20108;-72
2022/07/08 08:05:20;;;;;;;1.75;1.10;;;;;;;25.10;43.71;96587.16;5081264;28;20050;-72
2022/07/08 08:07:45;;;;;;;1.40;1.10;;;;;;;25.16;43.03;96586.31;5078883;28;20708;-72
2022/07/08 08:10:11;;;;;;;1.55;1.40;;;;;;;25.56;43.01;96584.50;5081200;28;20494;-71
2022/07/08 08:12:37;;;;;;;3.80;1.17;;;;;;;25.46;42.65;96585.75;5075531;28;20032;-72
2022/07/08 08:15:04;;;;;;;1.95;1.13;;;;;;;25.43;42.41;96579.97;5083407;28;20580;-71
2022/07/08 08:17:43;;;;;;;1.00;1.00;;;;;;;25.44;42.30;96585.13;5077885;28;20521;-73
2022/07/08 08:20:11;;;;;;;2.50;1.30;;;;;;;25.15;43.34;96578.41;5078822;28;20039;-73
2022/07/08 08:22:37;;;;;;;4.00;1.40;;;;;;;25.73;42.00;96574.84;5076367;28;20119;-71
2022/07/08 08:25:03;;;;;;;2.58;1.00;;;;;;;26.21;40.84;96577.25;5082744;28;20115;-71
2022/07/08 08:27:29;;;;;;;1.00;1.00;;;;;;;26.31;40.11;96567.59;5078012;28;20024;-71
2022/07/08 08:29:54;;;;;;;2.33;1.20;;;;;;;26.18;40.46;96565.00;5083784;28;20467;-71
2022/07/08 08:32:20;;;;;;;1.33;1.20;;;;;;;25.99;39.90;96550.59;5072743;28;20051;-71
2022/07/08 08:34:46;;;;;;;1.40;1.30;;;;;;;26.39;40.54;96565.66;5078509;28;20247;-71
2022/07/08 08:37:12;;;;;;;6.68;1.25;;;;;;;26.44;39.57;96569.34;5081092;28;20495;-71
2022/07/08 08:39:38;;;;;;;6.05;1.17;;;;;;;26.39;40.38;96568.34;5082713;28;20032;-72
2022/07/08 08:42:04;;;;;;;1.67;1.10;;;;;;;26.41;40.84;96566.25;5077416;28;20025;-71
2022/07/08 08:44:29;;;;;;;4.47;1.13;;;;;;;26.40;41.36;96573.53;5081967;28;20029;-73
2022/07/08 08:46:56;;;;;;;1.25;1.15;;;;;;;26.27;40.77;96562.84;5079759;28;20031;-71
2022/07/08 08:49:22;;;;;;;1.45;1.35;;;;;;;26.22;41.11;96571.63;5075941;28;20036;-71
2022/07/08 08:51:49;;;;;;;1.25;1.10;;;;;;;26.53;39.63;96566.38;5082125;28;20024;-71
2022/07/08 08:54:17;;;;;;;3.83;1.08;;;;;;;26.64;39.64;96560.22;5078292;28;20040;-71
2022/07/08 08:56:43;;;;;;;3.55;1.30;;;;;;;26.91;38.94;96568.06;5074308;28;20052;-71
2022/07/08 08:59:09;;;;;;;1.77;1.10;;;;;;;26.91;39.49;96559.16;5084501;28;20406;-70
2022/07/08 09:01:35;;;;;;;2.00;1.45;;;;;;;26.98;38.74;96562.59;5080695;28;20105;-71
2022/07/08 09:04:02;;;;;;;1.80;1.23;;;;;;;27.00;38.84;96547.00;5075316;28;20078;-70
2022/07/08 09:06:27;;;;;;;3.75;1.20;;;;;;;27.28;37.75;96553.72;5079175;28;20086;-72
2022/07/08 09:08:53;;;;;;;0.85;0.85;;;;;;;27.00;38.41;96555.09;5078148;28;20032;-71
2022/07/08 09:11:19;;;;;;;3.28;1.40;;;;;;;27.08;38.27;96557.50;5079312;28;20075;-70
2022/07/08 09:14:10;;;;;;;3.50;1.40;;;;;;;26.93;38.61;96555.16;5083311;28;20024;-71
2022/07/08 09:16:36;;;;;;;3.25;1.40;;;;;;;26.93;38.25;96555.16;5073209;28;20020;-71
2022/07/08 09:19:14;;;;;;;3.00;1.10;;;;;;;27.21;37.60;96539.47;5079057;28;20024;-70
2022/07/08 09:21:52;;;;;;;2.13;1.05;;;;;;;27.76;37.17;96546.63;5074134;28;20544;-71
2022/07/08 09:24:19;;;;;;;1.50;1.15;;;;;;;27.63;37.01;96544.97;5080087;28;20090;-71
2022/07/08 09:26:45;;;;;;;1.20;1.10;;;;;;;27.67;37.37;96546.13;5066930;28;20146;-71
2022/07/08 09:29:11;;;;;;;3.03;1.10;;;;;;;28.01;36.93;96532.94;5078386;28;20032;-72
2022/07/08 09:31:38;;;;;;;2.45;1.30;;;;;;;28.49;36.13;96530.28;5075932;28;20040;-71
2022/07/08 09:34:09;;;;;;;1.48;1.00;;;;;;;28.42;35.84;96521.47;5072816;28;20599;-70
2022/07/08 09:36:45;;;;;;;2.63;1.00;;;;;;;27.85;36.05;96520.91;5084072;28;20095;-72
2022/07/08 09:39:31;;;;;;;1.38;1.13;;;;;;;27.97;35.29;96530.94;5087615;28;20260;-71
2022/07/08 09:41:56;;;;;;;1.45;1.10;;;;;;;27.87;35.62;96526.91;5075485;28;20048;-72
2022/07/08 09:44:22;;;;;;;3.80;1.20;;;;;;;28.01;36.26;96516.72;5081856;28;20027;-72
2022/07/08 09:46:49;;;;;;;1.73;1.27;;;;;;;28.44;35.60;96530.19;5081911;28;20398;-72
2022/07/08 09:49:31;;;;;;;2.00;1.20;;;;;;;28.16;35.54;96527.09;5079727;28;20115;-71
2022/07/08 09:51:57;;;;;;;4.85;1.30;;;;;;;28.40;35.96;96521.69;5080271;28;20733;-71
2022/07/08 09:54:24;;;;;;;1.30;1.15;;;;;;;28.47;34.82;96518.88;5058882;28;20441;-71
2022/07/08 09:57:03;;;;;;;1.17;1.10;;;;;;;28.22;35.73;96519.09;5074327;28;20566;-72
2022/07/08 09:59:32;;;;;;;1.52;0.77;;;;;;;28.74;34.11;96521.91;5077646;28;20051;-71
2022/07/08 10:01:58;;;;;;;1.17;1.08;;;;;;;28.75;34.30;96520.00;5084297;28;20043;-72
2022/07/08 10:04:25;;;;;;;1.70;1.23;;;;;;;29.03;34.32;96526.56;5086460;28;20378;-72
2022/07/08 10:06:54;;;;;;;1.23;1.13;;;;;;;28.94;34.00;96528.00;5078745;28;20062;-73
2022/07/08 10:09:21;;;;;;;1.95;0.90;;;;;;;29.14;33.16;96528.44;5075100;28;20115;-72
2022/07/08 10:11:48;;;;;;;1.52;1.13;;;;;;;28.94;34.88;96534.25;5086438;28;20032;-72
2022/07/08 10:14:14;;;;;;;1.67;0.90;;;;;;;29.00;33.46;96521.63;5090895;28;20160;-72
2022/07/08 10:16:41;;;;;;;4.75;1.20;;;;;;;29.50;33.92;96527.47;5090345;28;20255;-71
2022/07/08 10:19:13;;;;;;;1.77;0.85;;;;;;;29.05;32.42;96529.03;5091129;28;20032;-72
2022/07/08 10:21:41;;;;;;;2.63;1.08;;;;;;;29.43;32.59;96531.19;5080453;28;20394;-72
2022/07/08 10:24:09;;;;;;;1.05;0.88;;;;;;;29.50;32.71;96524.78;5079595;28;20119;-72
2022/07/08 10:26:40;;;;;;;1.10;0.90;;;;;;;29.54;32.20;96510.50;5083032;28;20025;-72
2022/07/08 10:29:05;;;;;;;3.67;1.10;;;;;;;29.42;33.17;96526.00;5070420;28;20105;-71
2022/07/08 10:31:52;;;;;;;0.80;0.80;;;;;;;29.56;33.04;96529.25;5074321;28;20067;-73
2022/07/08 10:34:21;;;;;;;1.65;1.00;;;;;;;29.69;33.50;96528.13;5076024;28;20032;-71
2022/07/08 10:36:50;;;;;;;1.30;0.80;;;;;;;29.95;32.24;96533.97;5086228;28;20032;-71
2022/07/08 10:39:24;;;;;;;1.60;0.85;;;;;;;30.26;32.12;96521.75;5084776;28;20490;-72
2022/07/08 10:42:09;;;;;;;0.93;0.73;;;;;;;30.29;31.77;96523.16;5080526;28;20493;-71
2022/07/08 10:44:46;;;;;;;1.20;0.82;;;;;;;30.25;32.63;96520.09;5076555;28;20034;-71
2022/07/08 10:47:29;;;;;;;4.53;1.00;;;;;;;30.25;31.68;96528.25;5081777;28;20020;-71
2022/07/08 10:50:08;;;;;;;0.98;0.90;;;;;;;30.47;30.67;96532.09;5085224;28;20149;-72
2022/07/08 10:52:41;;;;;;;1.77;1.00;;;;;;;30.56;30.15;96525.16;5080129;28;20056;-71
2022/07/08 10:55:16;;;;;;;4.35;0.93;;;;;;;30.58;30.95;96531.16;5081248;28;20035;-72
2022/07/08 10:57:58;;;;;;;4.43;1.00;;;;;;;30.32;30.45;96527.25;5082830;28;20045;-72
2022/07/08 11:00:24;;;;;;;2.05;0.95;;;;;;;30.26;29.84;96524.47;5090937;28;20782;-70
2022/07/08 11:02:50;;;;;;;1.98;1.00;;;;;;;30.16;30.48;96524.28;5088115;28;20049;-71
2022/07/08 11:05:35;;;;;;;1.48;1.08;;;;;;;30.26;30.43;96529.06;5094673;28;20032;-72
2022/07/08 11:08:18;;;;;;;0.70;0.70;;;;;;;30.34;31.12;96528.66;5082874;28;20026;-72
2022/07/08 11:10:44;;;;;;;1.30;0.90;;;;;;;31.05;30.92;96527.16;5088498;28;20032;-73
2022/07/08 11:13:10;;;;;;;4.88;1.20;;;;;;;30.64;29.02;96532.91;5094110;28;20027;-70
2022/07/08 11:15:36;;;;;;;1.90;0.98;;;;;;;30.87;29.65;96521.00;5093730;28;20015;-70
2022/07/08 11:18:02;;;;;;;2.38;0.93;;;;;;;31.00;30.19;96521.69;5089279;28;20024;-72
2022/07/08 11:20:30;;;;;;;6.22;0.85;;;;;;;31.24;29.09;96518.72;5103274;28;20028;-69
2022/07/08 11:22:55;;;;;;;4.88;1.00;;;;;;;30.55;29.58;96513.47;5091319;28;20119;-71
2022/07/08 11:25:22;;;;;;;2.42;0.80;;;;;;;30.80;29.98;96514.09;5094421;28;20558;-70
2022/07/08 11:27:47;;;;;;;3.10;1.00;;;;;;;30.64;30.76;96510.38;5091644;28;20552;-70
2022/07/08 11:30:14;;;;;;;1.73;0.90;;;;;;;30.66;30.55;96505.50;5095651;28;20068;-71
2022/07/08 11:32:41;;;;;;;1.13;1.05;;;;;;;30.52;29.75;96508.53;5096795;28;20085;-72
2022/07/08 11:35:07;;;;;;;2.72;1.15;;;;;;;30.96;28.36;96513.22;5087459;28;20039;-72